createdAt,value
2023-02-06T00:01:27.203Z,2.43
2023-02-06T00:03:55.241Z,9.77
2023-02-06T00:06:23.062Z,9.63
2023-02-06T00:08:50.949Z,7.70
2023-02-06T00:11:18.903Z,8.00
2023-02-06T00:13:46.852Z,9.47
2023-02-06T00:16:22.036Z,3.50
2023-02-06T00:18:50.298Z,3.20
2023-02-06T00:21:22.013Z,3.60
2023-02-06T00:23:50.395Z,8.47
2023-02-06T00:26:18.466Z,5.40
2023-02-06T00:28:47.043Z,4.43
2023-02-06T00:31:15.752Z,6.07
2023-02-06T00:33:43.797Z,2.70
2023-02-06T00:36:11.673Z,10.33
2023-02-06T00:38:39.589Z,6.80
2023-02-06T00:41:07.454Z,9.47
2023-02-06T00:43:35.461Z,8.00
2023-02-06T00:46:03.456Z,2.83
2023-02-06T00:48:31.310Z,2.67
2023-02-06T00:50:59.200Z,6.57
2023-02-06T00:53:26.997Z,2.80
2023-02-06T00:55:54.874Z,3.30
2023-02-06T00:58:22.938Z,7.37
2023-02-06T01:00:52.076Z,1.77
2023-02-06T01:03:20.020Z,3.43
2023-02-06T01:05:48.328Z,3.33
2023-02-06T01:08:16.293Z,9.10
2023-02-06T01:10:44.804Z,6.23
2023-02-06T01:13:12.876Z,5.13
2023-02-06T01:15:42.266Z,11.50
2023-02-06T01:18:10.760Z,4.93
2023-02-06T01:20:41.539Z,2.58
2023-02-06T01:23:10.503Z,3.73
2023-02-06T01:25:38.870Z,6.37
2023-02-06T01:28:06.775Z,5.30
2023-02-06T01:30:34.644Z,3.13
2023-02-06T01:33:02.579Z,3.47
2023-02-06T01:35:30.440Z,3.90
2023-02-06T01:37:58.344Z,1.77
2023-02-06T01:40:26.301Z,5.93
2023-02-06T01:42:54.151Z,4.77
2023-02-06T01:45:26.379Z,3.07
2023-02-06T01:48:03.371Z,3.83
2023-02-06T01:50:34.550Z,7.30
2023-02-06T01:53:04.578Z,3.33
2023-02-06T01:55:33.343Z,3.80
2023-02-06T01:58:02.453Z,1.90
2023-02-06T02:00:31.179Z,2.77
2023-02-06T02:02:59.036Z,2.17
2023-02-06T02:05:27.032Z,2.50
2023-02-06T02:08:01.112Z,2.23
2023-02-06T02:10:32.504Z,11.30
2023-02-06T02:15:40.112Z,4.87
2023-02-06T02:18:28.284Z,5.03
2023-02-06T02:21:04.490Z,3.47
2023-02-06T02:24:04.859Z,2.87
2023-02-06T02:26:45.244Z,4.77
2023-02-06T02:29:19.066Z,1.80
2023-02-06T02:32:05.648Z,2.17
2023-02-06T02:34:45.777Z,1.83
2023-02-06T02:37:56.546Z,6.23
2023-02-06T02:40:42.861Z,8.97
2023-02-06T02:43:58.434Z,3.50
2023-02-06T02:46:38.462Z,3.07
2023-02-06T02:49:14.332Z,10.37
2023-02-06T02:51:42.867Z,8.30
2023-02-06T02:54:10.828Z,11.67
2023-02-06T02:56:38.711Z,2.07
2023-02-06T02:59:32.887Z,2.93
2023-02-06T03:02:13.262Z,2.70
2023-02-06T03:04:54.332Z,3.40
2023-02-06T03:07:37.449Z,1.73
2023-02-06T03:10:43.412Z,10.30
2023-02-06T03:13:25.286Z,6.67
2023-02-06T03:15:57.349Z,5.23
2023-02-06T03:18:41.164Z,15.50
2023-02-06T03:21:14.460Z,2.13
2023-02-06T03:23:44.482Z,6.00
2023-02-06T03:26:16.621Z,8.33
2023-02-06T03:28:50.124Z,1.70
2023-02-06T03:31:24.983Z,7.03
2023-02-06T03:34:03.104Z,2.83
2023-02-06T03:36:31.186Z,5.50
2023-02-06T03:38:59.290Z,2.07
2023-02-06T03:41:34.698Z,2.80
2023-02-06T03:44:06.741Z,1.50
2023-02-06T03:46:36.908Z,3.43
2023-02-06T03:49:07.957Z,5.30
2023-02-06T03:51:43.947Z,6.18
2023-02-06T03:54:13.577Z,2.53
2023-02-06T03:56:52.300Z,4.93
2023-02-06T03:59:20.521Z,1.70
2023-02-06T04:01:52.361Z,5.27
2023-02-06T04:04:28.855Z,1.97
2023-02-06T04:07:07.561Z,2.23
2023-02-06T04:09:37.048Z,7.10
2023-02-06T04:12:05.080Z,10.50
2023-02-06T04:14:33.118Z,2.10
2023-02-06T04:17:00.941Z,5.33
2023-02-06T04:19:28.928Z,3.60
2023-02-06T04:21:56.903Z,2.33
2023-02-06T04:24:25.032Z,3.53
2023-02-06T04:26:53.031Z,2.50
2023-02-06T04:29:20.927Z,3.43
2023-02-06T04:31:48.797Z,2.30
2023-02-06T04:34:16.919Z,1.87
2023-02-06T04:36:44.796Z,10.13
2023-02-06T04:39:12.673Z,3.07
2023-02-06T04:41:40.565Z,4.93
2023-02-06T04:44:08.436Z,3.10
2023-02-06T04:46:36.298Z,5.57
2023-02-06T04:49:04.499Z,3.50
2023-02-06T04:51:32.647Z,7.23
2023-02-06T04:54:01.579Z,2.23
2023-02-06T04:56:30.092Z,6.20
2023-02-06T04:58:57.925Z,3.90
2023-02-06T05:01:26.109Z,5.57
2023-02-06T05:03:53.944Z,2.00
2023-02-06T05:06:21.801Z,3.03
2023-02-06T05:08:49.680Z,2.30
2023-02-06T05:11:17.629Z,4.30
2023-02-06T05:13:45.462Z,3.13
2023-02-06T05:16:15.990Z,2.33
2023-02-06T05:18:44.592Z,3.00
2023-02-06T05:21:13.613Z,2.37
2023-02-06T05:23:41.570Z,2.67
2023-02-06T05:26:09.507Z,2.00
2023-02-06T05:28:37.351Z,3.13
2023-02-06T05:31:05.580Z,2.73
2023-02-06T05:33:33.494Z,2.17
2023-02-06T05:36:03.488Z,8.00
2023-02-06T05:38:31.954Z,2.80
2023-02-06T05:40:59.852Z,9.27
2023-02-06T05:43:27.903Z,2.20
2023-02-06T05:45:55.744Z,2.10
2023-02-06T05:48:23.602Z,3.70
2023-02-06T05:50:51.765Z,2.40
2023-02-06T05:53:20.769Z,4.27
2023-02-06T05:55:48.620Z,4.27
2023-02-06T05:58:16.832Z,2.97
2023-02-06T06:00:45.023Z,2.03
2023-02-06T06:03:12.926Z,5.73
2023-02-06T06:05:40.758Z,6.30
2023-02-06T06:08:08.638Z,8.50
2023-02-06T06:10:36.473Z,4.33
2023-02-06T06:13:04.650Z,5.67
2023-02-06T06:15:32.503Z,4.27
2023-02-06T06:18:00.423Z,3.63
2023-02-06T06:20:28.255Z,3.77
2023-02-06T06:22:56.116Z,5.85
2023-02-06T06:25:23.978Z,3.97
2023-02-06T06:27:51.939Z,3.23
2023-02-06T06:30:19.847Z,5.30
2023-02-06T06:32:47.878Z,4.97
2023-02-06T06:35:15.765Z,5.27
2023-02-06T06:37:43.656Z,4.57
2023-02-06T06:40:12.774Z,5.07
2023-02-06T06:42:40.798Z,3.67
2023-02-06T06:45:08.885Z,10.77
2023-02-06T06:47:36.830Z,4.93
2023-02-06T06:50:06.069Z,3.70
2023-02-06T06:52:34.101Z,4.70
2023-02-06T06:55:01.969Z,6.65
2023-02-06T06:57:32.324Z,5.83
2023-02-06T07:00:00.364Z,3.47
2023-02-06T07:02:28.537Z,2.87
2023-02-06T07:04:57.607Z,8.93
2023-02-06T07:07:25.555Z,6.20
2023-02-06T07:09:53.412Z,5.13
2023-02-06T07:12:21.479Z,5.87
2023-02-06T07:14:49.339Z,4.30
2023-02-06T07:17:17.170Z,3.70
2023-02-06T07:19:49.177Z,5.43
2023-02-06T07:22:17.077Z,7.77
2023-02-06T07:24:44.958Z,9.67
2023-02-06T07:27:13.181Z,11.37
2023-02-06T07:29:41.050Z,10.47
2023-02-06T07:32:09.115Z,8.07
2023-02-06T07:34:36.956Z,4.63
2023-02-06T07:37:06.966Z,11.03
2023-02-06T07:39:35.168Z,5.43
2023-02-06T07:42:03.221Z,3.53
2023-02-06T07:44:44.195Z,4.70
2023-02-06T07:47:12.054Z,8.17
2023-02-06T07:49:39.877Z,9.53
2023-02-06T07:52:07.733Z,5.47
2023-02-06T07:54:35.673Z,6.50
2023-02-06T07:57:03.611Z,7.23
2023-02-06T07:59:31.501Z,7.00
2023-02-06T08:02:00.338Z,4.87
2023-02-06T08:04:34.935Z,7.87
2023-02-06T08:07:04.234Z,4.33
2023-02-06T08:09:32.843Z,6.00
2023-02-06T08:12:00.780Z,10.13
2023-02-06T08:14:28.824Z,14.40
2023-02-06T08:16:56.827Z,10.53
2023-02-06T08:19:25.206Z,10.90
2023-02-06T08:21:53.192Z,12.07
2023-02-06T08:24:21.086Z,21.43
2023-02-06T08:26:48.993Z,10.17
2023-02-06T08:29:16.879Z,15.70
2023-02-06T08:31:44.805Z,19.70
2023-02-06T08:34:14.734Z,12.13
2023-02-06T08:36:43.752Z,15.73
2023-02-06T08:39:14.284Z,18.37
2023-02-06T08:41:43.917Z,12.18
2023-02-06T08:44:16.578Z,18.07
2023-02-06T08:46:45.900Z,9.40
2023-02-06T08:49:22.265Z,9.38
2023-02-06T08:51:50.707Z,8.85
2023-02-06T08:54:22.195Z,10.75
2023-02-06T08:56:51.717Z,12.35
2023-02-06T08:59:20.445Z,12.55
2023-02-06T09:01:49.249Z,6.78
2023-02-06T09:04:17.642Z,22.90
2023-02-06T09:06:48.788Z,13.13
2023-02-06T09:09:16.861Z,14.10
2023-02-06T09:11:45.039Z,16.02
2023-02-06T09:14:17.905Z,13.65
2023-02-06T09:16:46.038Z,11.60
2023-02-06T09:19:14.437Z,10.77
2023-02-06T09:21:42.361Z,7.45
2023-02-06T09:24:10.298Z,6.97
2023-02-06T09:26:58.128Z,9.93
2023-02-06T09:29:29.346Z,11.02
2023-02-06T09:31:57.816Z,14.90
2023-02-06T09:34:26.335Z,17.60
2023-02-06T09:36:55.023Z,20.57
2023-02-06T09:39:23.071Z,21.42
2023-02-06T09:41:55.676Z,15.30
2023-02-06T09:44:28.478Z,17.92
2023-02-06T09:47:25.096Z,10.60
2023-02-06T09:50:25.070Z,19.98
2023-02-06T09:53:02.289Z,20.40
2023-02-06T09:55:50.869Z,13.00
2023-02-06T09:59:00.407Z,11.68
2023-02-06T10:02:15.451Z,12.35
2023-02-06T10:04:59.773Z,13.43
2023-02-06T10:07:47.122Z,21.35
2023-02-06T10:10:34.788Z,19.85
2023-02-06T10:13:05.741Z,20.08
2023-02-06T10:15:41.948Z,28.98
2023-02-06T10:18:31.641Z,12.32
2023-02-06T10:21:20.385Z,13.45
2023-02-06T10:24:18.997Z,14.50
2023-02-06T10:26:50.130Z,14.00
2023-02-06T10:29:27.826Z,16.80
2023-02-06T10:32:20.185Z,18.45
2023-02-06T10:35:22.585Z,12.88
2023-02-06T10:38:17.323Z,12.38
2023-02-06T10:41:03.485Z,9.68
2023-02-06T10:43:54.308Z,11.23
2023-02-06T10:46:49.147Z,8.45
2023-02-06T10:49:36.254Z,12.75
2023-02-06T10:52:25.427Z,12.57
2023-02-06T10:55:12.184Z,24.60
2023-02-06T10:57:40.278Z,16.55
2023-02-06T11:00:21.269Z,8.75
2023-02-06T11:03:06.810Z,31.92
2023-02-06T11:05:36.936Z,9.82
2023-02-06T11:08:04.868Z,15.93
2023-02-06T11:10:32.748Z,16.95
2023-02-06T11:13:23.185Z,17.90
2023-02-06T11:16:06.333Z,16.90
2023-02-06T11:18:39.167Z,13.35
2023-02-06T11:21:09.916Z,10.90
2023-02-06T11:23:37.892Z,14.23
2023-02-06T11:26:14.190Z,10.88
2023-02-06T11:28:53.545Z,11.48
2023-02-06T11:31:50.020Z,9.30
2023-02-06T11:34:35.667Z,13.73
2023-02-06T11:37:37.661Z,6.40
2023-02-06T11:40:26.908Z,9.38
2023-02-06T11:43:18.874Z,10.02
2023-02-06T11:45:48.816Z,10.90
2023-02-06T11:48:45.374Z,10.88
2023-02-06T11:51:14.946Z,15.82
2023-02-06T11:54:03.895Z,15.70
2023-02-06T11:56:32.456Z,10.65
2023-02-06T11:59:07.572Z,16.17
2023-02-06T12:01:43.794Z,15.57
2023-02-06T12:04:23.664Z,15.93
2023-02-06T12:07:18.919Z,12.82
2023-02-06T12:09:46.904Z,20.80
2023-02-06T12:12:26.246Z,17.15
2023-02-06T12:14:58.295Z,20.60
2023-02-06T12:17:36.819Z,18.35
2023-02-06T12:20:26.518Z,14.20
2023-02-06T12:23:01.023Z,15.85
2023-02-06T12:25:43.001Z,18.65
2023-02-06T12:28:15.635Z,12.82
2023-02-06T12:30:55.743Z,18.85
2023-02-06T12:33:34.772Z,16.58
2023-02-06T12:36:11.999Z,12.80
2023-02-06T12:39:15.931Z,13.23
2023-02-06T12:42:13.690Z,13.73
2023-02-06T12:44:51.407Z,12.30
2023-02-06T12:47:30.787Z,17.45
2023-02-06T12:50:06.599Z,12.38
2023-02-06T12:52:40.207Z,13.80
2023-02-06T12:55:08.304Z,14.82
2023-02-06T12:57:37.186Z,12.15
2023-02-06T13:00:30.662Z,16.83
2023-02-06T13:03:33.036Z,10.57
2023-02-06T13:06:11.107Z,15.48
2023-02-06T13:08:41.777Z,10.43
2023-02-06T13:11:38.979Z,9.80
2023-02-06T13:14:17.920Z,12.55
2023-02-06T13:16:59.561Z,12.65
2023-02-06T13:19:30.729Z,14.23
2023-02-06T13:22:11.019Z,12.82
2023-02-06T13:24:40.988Z,14.13
2023-02-06T13:27:08.983Z,12.65
2023-02-06T13:29:43.999Z,11.48
2023-02-06T13:32:11.843Z,8.18
2023-02-06T13:34:53.764Z,12.52
2023-02-06T13:37:47.844Z,11.85
2023-02-06T13:40:25.674Z,9.65
2023-02-06T13:42:59.442Z,11.40
2023-02-06T13:46:00.932Z,8.98
2023-02-06T13:51:52.936Z,14.35
2023-02-06T13:54:54.035Z,17.45
2023-02-06T13:57:53.006Z,13.18
2023-02-06T14:00:25.580Z,14.27
2023-02-06T14:03:06.407Z,23.23
2023-02-06T14:05:54.717Z,13.77
2023-02-06T14:08:51.687Z,11.60
2023-02-06T14:12:19.380Z,15.07
2023-02-06T14:15:03.711Z,12.82
2023-02-06T14:18:28.658Z,5.75
2023-02-06T14:22:22.136Z,8.63
2023-02-06T14:25:16.557Z,7.50
2023-02-06T14:28:18.067Z,12.27
2023-02-06T14:34:11.709Z,11.70
2023-02-06T14:36:50.604Z,8.07
2023-02-06T14:39:50.549Z,8.57
2023-02-06T14:42:32.313Z,6.65
2023-02-06T14:45:41.983Z,11.15
2023-02-06T14:48:38.435Z,8.07
2023-02-06T14:51:08.167Z,12.00
2023-02-06T14:53:39.461Z,7.72
2023-02-06T14:56:25.993Z,9.95
2023-02-06T14:58:54.199Z,11.65
2023-02-06T15:01:27.756Z,9.43
2023-02-06T15:04:11.236Z,8.25
2023-02-06T15:06:51.023Z,7.28
2023-02-06T15:09:44.028Z,11.45
2023-02-06T15:12:24.769Z,8.77
2023-02-06T15:15:14.236Z,8.65
2023-02-06T15:17:42.471Z,7.70
2023-02-06T15:20:27.601Z,13.13
2023-02-06T15:23:11.711Z,8.88
2023-02-06T15:26:02.909Z,7.63
2023-02-06T15:28:33.581Z,10.65
2023-02-06T15:31:02.752Z,10.55
2023-02-06T15:33:34.716Z,9.63
2023-02-06T15:36:04.569Z,11.35
2023-02-06T15:38:33.488Z,8.52
2023-02-06T15:41:07.439Z,7.53
2023-02-06T15:43:36.150Z,7.45
2023-02-06T15:46:05.726Z,6.00
2023-02-06T15:48:48.784Z,9.95
2023-02-06T15:51:39.718Z,11.15
2023-02-06T15:54:22.752Z,7.85
2023-02-06T15:56:56.551Z,6.82
2023-02-06T15:59:26.270Z,11.70
2023-02-06T16:01:57.132Z,4.88
2023-02-06T16:04:36.433Z,9.30
2023-02-06T16:07:10.327Z,6.55
2023-02-06T16:09:53.121Z,5.28
2023-02-06T16:12:21.892Z,7.45
2023-02-06T16:14:59.458Z,13.55
2023-02-06T16:17:41.162Z,9.80
2023-02-06T16:20:28.770Z,8.15
2023-02-06T16:23:23.204Z,12.30
2023-02-06T16:26:52.527Z,11.48
2023-02-06T16:29:23.528Z,12.32
2023-02-06T16:32:00.409Z,13.73
2023-02-06T16:34:44.409Z,15.30
2023-02-06T16:37:32.362Z,10.27
2023-02-06T16:40:00.346Z,15.27
2023-02-06T16:42:36.076Z,10.68
2023-02-06T16:45:21.150Z,5.30
2023-02-06T16:47:49.743Z,11.90
2023-02-06T16:50:19.021Z,17.42
2023-02-06T16:52:50.137Z,9.52
2023-02-06T16:55:22.900Z,10.57
2023-02-06T16:58:01.971Z,10.68
2023-02-06T17:00:31.749Z,8.98
2023-02-06T17:03:00.008Z,8.95
2023-02-06T17:05:28.995Z,9.30
2023-02-06T17:07:56.883Z,17.85
2023-02-06T17:10:26.457Z,7.93
2023-02-06T17:12:54.698Z,19.10
2023-02-06T17:15:22.569Z,13.18
2023-02-06T17:17:50.478Z,9.85
2023-02-06T17:20:40.102Z,8.85
2023-02-06T17:23:10.780Z,17.50
2023-02-06T17:25:39.756Z,9.30
2023-02-06T17:28:10.855Z,19.42
2023-02-06T17:30:40.936Z,9.27
2023-02-06T17:33:09.428Z,13.73
2023-02-06T17:35:37.844Z,11.73
2023-02-06T17:38:09.755Z,11.05
2023-02-06T17:40:40.036Z,10.77
2023-02-06T17:43:08.565Z,10.57
2023-02-06T17:45:39.614Z,10.05
2023-02-06T17:48:08.142Z,12.27
2023-02-06T17:50:37.370Z,8.00
2023-02-06T17:53:07.044Z,11.30
2023-02-06T17:55:36.033Z,7.10
2023-02-06T17:58:04.422Z,9.65
2023-02-06T18:00:32.466Z,6.80
2023-02-06T18:03:00.698Z,11.80
2023-02-06T18:05:28.999Z,7.55
2023-02-06T18:07:56.872Z,5.97
2023-02-06T18:10:25.714Z,9.48
2023-02-06T18:12:53.687Z,16.33
2023-02-06T18:15:22.080Z,8.95
2023-02-06T18:17:50.532Z,8.48
2023-02-06T18:20:18.545Z,8.18
2023-02-06T18:22:47.231Z,8.65
2023-02-06T18:25:15.736Z,9.95
2023-02-06T18:27:45.935Z,13.18
2023-02-06T18:30:15.560Z,9.38
2023-02-06T18:32:43.728Z,23.35
2023-02-06T18:35:11.785Z,18.92
2023-02-06T18:37:39.783Z,26.27
2023-02-06T18:40:08.064Z,31.30
2023-02-06T18:42:54.486Z,30.55
2023-02-06T18:45:25.364Z,23.27
2023-02-06T18:47:53.387Z,15.10
2023-02-06T18:50:22.145Z,20.27
2023-02-06T18:52:50.678Z,11.60
2023-02-06T18:55:18.936Z,11.60
2023-02-06T18:57:47.425Z,15.57
2023-02-06T19:00:16.728Z,17.73
2023-02-06T19:02:44.747Z,7.57
2023-02-06T19:05:12.712Z,7.60
2023-02-06T19:07:40.787Z,6.83
2023-02-06T19:10:12.813Z,7.88
2023-02-06T19:12:44.690Z,11.30
2023-02-06T19:15:13.539Z,11.40
2023-02-06T19:17:41.813Z,12.77
2023-02-06T19:20:10.515Z,12.53
2023-02-06T19:22:39.676Z,5.73
2023-02-06T19:25:12.065Z,11.80
2023-02-06T19:27:41.406Z,8.60
2023-02-06T19:30:09.835Z,5.57
2023-02-06T19:32:37.725Z,5.23
2023-02-06T19:35:05.962Z,9.80
2023-02-06T19:37:33.944Z,5.63
2023-02-06T19:40:01.838Z,10.07
2023-02-06T19:42:29.702Z,12.50
2023-02-06T19:44:57.545Z,9.17
2023-02-06T19:47:25.375Z,8.60
2023-02-06T19:49:53.467Z,14.93
2023-02-06T19:52:21.371Z,10.70
2023-02-06T19:54:49.252Z,5.33
2023-02-06T19:57:19.231Z,9.80
2023-02-06T19:59:47.035Z,7.93
2023-02-06T20:02:16.636Z,9.17
2023-02-06T20:04:46.102Z,9.37
2023-02-06T20:07:14.028Z,5.73
2023-02-06T20:09:42.597Z,8.60
2023-02-06T20:12:12.394Z,9.20
2023-02-06T20:14:40.651Z,6.70
2023-02-06T20:17:08.586Z,7.10
2023-02-06T20:19:36.607Z,7.63
2023-02-06T20:22:05.996Z,5.93
2023-02-06T20:24:33.944Z,12.20
2023-02-06T20:27:05.641Z,7.83
2023-02-06T20:29:39.237Z,9.13
2023-02-06T20:32:07.583Z,5.97
2023-02-06T20:34:35.921Z,8.27
2023-02-06T20:37:04.276Z,7.70
2023-02-06T20:39:32.485Z,8.97
2023-02-06T20:42:00.613Z,7.10
2023-02-06T20:44:28.780Z,10.03
2023-02-06T20:46:56.681Z,6.93
2023-02-06T20:49:27.650Z,6.90
2023-02-06T20:51:55.725Z,6.72
2023-02-06T20:54:24.789Z,12.40
2023-02-06T20:56:53.138Z,7.40
2023-02-06T20:59:21.216Z,7.80
2023-02-06T21:01:49.338Z,13.10
2023-02-06T21:04:18.495Z,12.20
2023-02-06T21:06:48.442Z,10.20
2023-02-06T21:09:18.311Z,7.53
2023-02-06T21:11:48.873Z,8.27
2023-02-06T21:14:17.663Z,8.57
2023-02-06T21:16:46.053Z,6.13
2023-02-06T21:19:16.783Z,5.83
2023-02-06T21:21:46.352Z,3.78
2023-02-06T21:24:15.607Z,8.37
2023-02-06T21:26:43.639Z,7.00
2023-02-06T21:29:13.733Z,18.07
2023-02-06T21:31:42.005Z,8.07
2023-02-06T21:34:28.084Z,7.67
2023-02-06T21:36:56.052Z,6.20
2023-02-06T21:39:26.995Z,10.97
2023-02-06T21:41:55.073Z,6.45
2023-02-06T21:44:24.369Z,6.77
2023-02-06T21:46:52.825Z,5.87
2023-02-06T21:49:21.095Z,8.33
2023-02-06T21:51:50.328Z,8.17
2023-02-06T21:54:18.645Z,9.90
2023-02-06T21:56:46.604Z,6.73
2023-02-06T21:59:14.526Z,12.87
2023-02-06T22:01:42.470Z,5.00
2023-02-06T22:04:11.537Z,7.17
2023-02-06T22:06:40.055Z,8.43
2023-02-06T22:09:11.345Z,10.63
2023-02-06T22:14:12.110Z,4.03
2023-02-06T22:16:40.407Z,7.27
2023-02-06T22:19:08.612Z,6.93
2023-02-06T22:21:36.550Z,9.03
2023-02-06T22:24:06.850Z,7.80
2023-02-06T22:26:38.479Z,15.37
2023-02-06T22:29:09.617Z,14.90
2023-02-06T22:31:38.576Z,5.85
2023-02-06T22:34:06.596Z,4.80
2023-02-06T22:36:34.573Z,7.10
2023-02-06T22:39:06.401Z,7.57
2023-02-06T22:41:35.657Z,6.37
2023-02-06T22:44:03.844Z,4.93
2023-02-06T22:46:35.048Z,7.43
2023-02-06T22:51:32.613Z,6.10
2023-02-06T22:54:00.739Z,8.10
2023-02-06T22:56:36.755Z,8.80
2023-02-06T22:59:18.328Z,4.20
2023-02-06T23:02:00.260Z,4.53
2023-02-06T23:04:36.048Z,4.97
2023-02-06T23:07:04.381Z,5.37
2023-02-06T23:09:37.632Z,6.93
2023-02-06T23:12:05.837Z,9.83
2023-02-06T23:14:33.877Z,10.07
2023-02-06T23:17:02.226Z,5.67
2023-02-06T23:19:30.623Z,7.33
2023-02-06T23:21:58.502Z,7.03
2023-02-06T23:24:26.507Z,3.83
2023-02-06T23:26:54.545Z,5.80
2023-02-06T23:29:23.806Z,7.13
2023-02-06T23:31:51.939Z,9.50
2023-02-06T23:34:23.475Z,6.43
2023-02-06T23:36:51.957Z,6.93
2023-02-06T23:39:19.903Z,5.50
2023-02-06T23:41:48.099Z,8.43
2023-02-06T23:44:16.002Z,7.17
2023-02-06T23:46:43.913Z,5.70
2023-02-06T23:49:12.171Z,7.90
2023-02-06T23:51:40.099Z,7.40
2023-02-06T23:54:09.428Z,8.33
2023-02-06T23:56:38.111Z,5.83
2023-02-06T23:59:06.722Z,9.57
